sensor_id;sensor_type;location;lat;lon;timestamp;pressure;altitude;pressure_sealevel;temperature;humidity
12879;BME280;20617;49.476;10.986;2023-02-18T00:00:13;98989.66;;;11.65;100.00
12879;BME280;20617;49.476;10.986;2023-02-18T00:02:18;98989.78;;;11.62;100.00
12879;BME280;20617;49.476;10.986;2023-02-18T00:04:23;98996.75;;;11.61;100.00
12879;BME280;20617;49.476;10.986;2023-02-18T00:06:30;98980.78;;;11.70;100.00
12879;BME280;20617;49.476;10.986;2023-02-18T00:08:35;98993.22;;;11.62;100.00
12879;BME280;20617;49.476;10.986;2023-02-18T00:10:43;98997.59;;;11.62;100.00
12879;BME280;20617;49.476;10.986;2023-02-18T00:12:47;98998.66;;;11.56;100.00
12879;BME280;20617;49.476;10.986;2023-02-18T00:14:52;99003.25;;;11.49;100.00
12879;BME280;20617;49.476;10.986;2023-02-18T00:17:00;99003.50;;;11.42;100.00
12879;BME280;20617;49.476;10.986;2023-02-18T00:19:07;98999.22;;;11.39;100.00
12879;BME280;20617;49.476;10.986;2023-02-18T00:21:14;98997.44;;;11.41;100.00
12879;BME280;20617;49.476;10.986;2023-02-18T00:23:19;98994.81;;;11.41;100.00
12879;BME280;20617;49.476;10.986;2023-02-18T00:25:24;98996.63;;;11.39;100.00
12879;BME280;20617;49.476;10.986;2023-02-18T00:27:32;98999.97;;;11.43;100.00
12879;BME280;20617;49.476;10.986;2023-02-18T00:29:37;98989.41;;;11.47;100.00
12879;BME280;20617;49.476;10.986;2023-02-18T00:31:42;99001.78;;;11.41;100.00
12879;BME280;20617;49.476;10.986;2023-02-18T00:33:47;98999.00;;;11.45;100.00
12879;BME280;20617;49.476;10.986;2023-02-18T00:35:52;98999.97;;;11.43;100.00
12879;BME280;20617;49.476;10.986;2023-02-18T00:38:04;98987.88;;;11.40;100.00
12879;BME280;20617;49.476;10.986;2023-02-18T00:40:09;98990.44;;;11.42;100.00
12879;BME280;20617;49.476;10.986;2023-02-18T00:42:14;98992.75;;;11.51;100.00
12879;BME280;20617;49.476;10.986;2023-02-18T00:44:22;98998.91;;;11.48;100.00
12879;BME280;20617;49.476;10.986;2023-02-18T00:46:27;98992.63;;;11.54;100.00
12879;BME280;20617;49.476;10.986;2023-02-18T00:48:35;98988.44;;;11.50;100.00
12879;BME280;20617;49.476;10.986;2023-02-18T00:50:40;98991.16;;;11.47;100.00
12879;BME280;20617;49.476;10.986;2023-02-18T00:52:45;98989.50;;;11.44;100.00
12879;BME280;20617;49.476;10.986;2023-02-18T00:54:50;98992.84;;;11.48;100.00
12879;BME280;20617;49.476;10.986;2023-02-18T00:56:54;98989.25;;;11.52;100.00
12879;BME280;20617;49.476;10.986;2023-02-18T00:59:00;98990.03;;;11.54;100.00
12879;BME280;20617;49.476;10.986;2023-02-18T01:01:08;98986.56;;;11.53;100.00
12879;BME280;20617;49.476;10.986;2023-02-18T01:03:14;98994.28;;;11.56;100.00
12879;BME280;20617;49.476;10.986;2023-02-18T01:05:19;98991.66;;;11.58;100.00
12879;BME280;20617;49.476;10.986;2023-02-18T01:07:25;98994.19;;;11.60;100.00
12879;BME280;20617;49.476;10.986;2023-02-18T01:09:29;98999.72;;;11.50;100.00
12879;BME280;20617;49.476;10.986;2023-02-18T01:11:34;98992.94;;;11.45;100.00
12879;BME280;20617;49.476;10.986;2023-02-18T01:13:40;99015.06;;;11.33;100.00
12879;BME280;20617;49.476;10.986;2023-02-18T01:15:45;99005.56;;;11.32;100.00
12879;BME280;20617;49.476;10.986;2023-02-18T01:17:52;99003.91;;;11.29;100.00
12879;BME280;20617;49.476;10.986;2023-02-18T01:19:57;99009.97;;;11.30;100.00
12879;BME280;20617;49.476;10.986;2023-02-18T01:22:02;99012.06;;;11.19;100.00
12879;BME280;20617;49.476;10.986;2023-02-18T01:24:08;99016.28;;;11.23;100.00
12879;BME280;20617;49.476;10.986;2023-02-18T01:26:13;99016.19;;;11.26;100.00
12879;BME280;20617;49.476;10.986;2023-02-18T01:28:18;99013.75;;;11.20;100.00
12879;BME280;20617;49.476;10.986;2023-02-18T01:30:26;99027.06;;;11.12;100.00
12879;BME280;20617;49.476;10.986;2023-02-18T01:32:31;99023.53;;;11.13;100.00
12879;BME280;20617;49.476;10.986;2023-02-18T01:34:38;99023.34;;;11.19;100.00
12879;BME280;20617;49.476;10.986;2023-02-18T01:36:43;99027.88;;;11.14;100.00
12879;BME280;20617;49.476;10.986;2023-02-18T01:38:51;99029.75;;;11.09;100.00
12879;BME280;20617;49.476;10.986;2023-02-18T01:40:57;99030.53;;;11.11;100.00
12879;BME280;20617;49.476;10.986;2023-02-18T01:43:02;99030.59;;;11.09;100.00
12879;BME280;20617;49.476;10.986;2023-02-18T01:47:27;99042.72;;;11.10;100.00
12879;BME280;20617;49.476;10.986;2023-02-18T01:49:34;99033.22;;;11.09;100.00
12879;BME280;20617;49.476;10.986;2023-02-18T01:51:46;99028.84;;;11.10;100.00
12879;BME280;20617;49.476;10.986;2023-02-18T01:53:54;99037.31;;;11.17;100.00
12879;BME280;20617;49.476;10.986;2023-02-18T01:56:02;99032.06;;;11.18;100.00
12879;BME280;20617;49.476;10.986;2023-02-18T01:58:11;99033.06;;;11.14;100.00
12879;BME280;20617;49.476;10.986;2023-02-18T02:00:18;99022.59;;;11.16;100.00
12879;BME280;20617;49.476;10.986;2023-02-18T02:02:26;99025.09;;;11.19;100.00
12879;BME280;20617;49.476;10.986;2023-02-18T02:04:32;99025.84;;;11.22;100.00
12879;BME280;20617;49.476;10.986;2023-02-18T02:06:37;99013.94;;;11.14;100.00
12879;BME280;20617;49.476;10.986;2023-02-18T02:08:46;99013.75;;;11.20;100.00
12879;BME280;20617;49.476;10.986;2023-02-18T02:11:09;99012.06;;;11.19;100.00
12879;BME280;20617;49.476;10.986;2023-02-18T02:13:22;99005.88;;;11.23;100.00
12879;BME280;20617;49.476;10.986;2023-02-18T02:15:35;99010.41;;;11.16;100.00
12879;BME280;20617;49.476;10.986;2023-02-18T02:17:51;99011.97;;;11.22;100.00
12879;BME280;20617;49.476;10.986;2023-02-18T02:25:47;98997.03;;;11.00;100.00
12879;BME280;20617;49.476;10.986;2023-02-18T02:28:21;99006.78;;;10.94;100.00
12879;BME280;20617;49.476;10.986;2023-02-18T02:30:48;98999.56;;;11.02;100.00
12879;BME280;20617;49.476;10.986;2023-02-18T02:33:15;99008.41;;;10.98;100.00
12879;BME280;20617;49.476;10.986;2023-02-18T02:35:28;98991.91;;;10.97;100.00
12879;BME280;20617;49.476;10.986;2023-02-18T02:37:39;98996.19;;;11.00;100.00
12879;BME280;20617;49.476;10.986;2023-02-18T02:39:53;98992.69;;;10.99;100.00
12879;BME280;20617;49.476;10.986;2023-02-18T02:42:08;98990.16;;;10.98;100.00
12879;BME280;20617;49.476;10.986;2023-02-18T02:44:20;98985.75;;;11.00;100.00
12879;BME280;20617;49.476;10.986;2023-02-18T02:46:28;98980.28;;;11.07;100.00
12879;BME280;20617;49.476;10.986;2023-02-18T02:48:41;98973.22;;;11.11;100.00
12879;BME280;20617;49.476;10.986;2023-02-18T02:50:57;98967.84;;;11.16;100.00
12879;BME280;20617;49.476;10.986;2023-02-18T02:53:13;98964.06;;;11.26;100.00
12879;BME280;20617;49.476;10.986;2023-02-18T02:55:21;98969.38;;;11.23;100.00
12879;BME280;20617;49.476;10.986;2023-02-18T02:57:50;98962.22;;;11.28;100.00
12879;BME280;20617;49.476;10.986;2023-02-18T03:00:05;98959.31;;;11.37;100.00
12879;BME280;20617;49.476;10.986;2023-02-18T03:02:21;98949.97;;;11.31;100.00
12879;BME280;20617;49.476;10.986;2023-02-18T03:04:47;98943.16;;;11.27;100.00
12879;BME280;20617;49.476;10.986;2023-02-18T03:07:10;98946.44;;;11.32;100.00
12879;BME280;20617;49.476;10.986;2023-02-18T03:09:22;98941.13;;;11.36;100.00
12879;BME280;20617;49.476;10.986;2023-02-18T03:11:38;98941.16;;;11.34;100.00
12879;BME280;20617;49.476;10.986;2023-02-18T03:13:58;98951.34;;;11.42;100.00
12879;BME280;20617;49.476;10.986;2023-02-18T03:16:21;98939.75;;;11.50;100.00
12879;BME280;20617;49.476;10.986;2023-02-18T03:18:29;98938.16;;;11.46;100.00
12879;BME280;20617;49.476;10.986;2023-02-18T03:20:40;98942.09;;;11.58;100.00
12879;BME280;20617;49.476;10.986;2023-02-18T03:22:50;98941.16;;;11.61;100.00
12879;BME280;20617;49.476;10.986;2023-02-18T03:24:57;98947.47;;;11.53;100.00
12879;BME280;20617;49.476;10.986;2023-02-18T03:27:06;98947.78;;;11.44;100.00
12879;BME280;20617;49.476;10.986;2023-02-18T03:29:14;98958.44;;;11.38;100.00
12879;BME280;20617;49.476;10.986;2023-02-18T03:31:26;98950.31;;;11.46;100.00
12879;BME280;20617;49.476;10.986;2023-02-18T03:33:36;98954.81;;;11.42;100.00
12879;BME280;20617;49.476;10.986;2023-02-18T03:35:44;98956.47;;;11.45;100.00
12879;BME280;20617;49.476;10.986;2023-02-18T03:37:58;98954.75;;;11.44;100.00
12879;BME280;20617;49.476;10.986;2023-02-18T03:40:07;98952.91;;;11.47;100.00
12879;BME280;20617;49.476;10.986;2023-02-18T03:42:14;98952.06;;;11.47;100.00
12879;BME280;20617;49.476;10.986;2023-02-18T03:44:20;98958.97;;;11.48;100.00
12879;BME280;20617;49.476;10.986;2023-02-18T03:46:25;98954.00;;;11.40;100.00
12879;BME280;20617;49.476;10.986;2023-02-18T03:48:32;98956.72;;;11.37;100.00
12879;BME280;20617;49.476;10.986;2023-02-18T03:50:37;98946.97;;;11.42;100.00
12879;BME280;20617;49.476;10.986;2023-02-18T03:52:40;98952.47;;;11.35;100.00
12879;BME280;20617;49.476;10.986;2023-02-18T03:54:47;98964.53;;;11.37;100.00
12879;BME280;20617;49.476;10.986;2023-02-18T03:56:52;98956.28;;;11.24;100.00
12879;BME280;20617;49.476;10.986;2023-02-18T03:58:57;98955.25;;;11.28;100.00
12879;BME280;20617;49.476;10.986;2023-02-18T04:01:02;98950.94;;;11.29;100.00
12879;BME280;20617;49.476;10.986;2023-02-18T04:03:08;98962.13;;;11.31;100.00
12879;BME280;20617;49.476;10.986;2023-02-18T04:05:12;98953.47;;;11.30;100.00
12879;BME280;20617;49.476;10.986;2023-02-18T04:07:17;98959.53;;;11.31;100.00
12879;BME280;20617;49.476;10.986;2023-02-18T04:09:22;98961.25;;;11.32;100.00
12879;BME280;20617;49.476;10.986;2023-02-18T04:11:30;98960.44;;;11.30;100.00
12879;BME280;20617;49.476;10.986;2023-02-18T04:13:34;98963.34;;;11.21;100.00
12879;BME280;20617;49.476;10.986;2023-02-18T04:15:39;98960.66;;;11.24;100.00
12879;BME280;20617;49.476;10.986;2023-02-18T04:17:44;98954.63;;;11.22;100.00
12879;BME280;20617;49.476;10.986;2023-02-18T04:19:49;98959.59;;;11.29;100.00
12879;BME280;20617;49.476;10.986;2023-02-18T04:21:54;98956.72;;;11.37;100.00
12879;BME280;20617;49.476;10.986;2023-02-18T04:23:59;98966.25;;;11.38;100.00
12879;BME280;20617;49.476;10.986;2023-02-18T04:26:04;98960.09;;;11.41;100.00
12879;BME280;20617;49.476;10.986;2023-02-18T04:28:12;98957.09;;;11.51;100.00
12879;BME280;20617;49.476;10.986;2023-02-18T04:30:18;98959.53;;;11.31;100.00
12879;BME280;20617;49.476;10.986;2023-02-18T04:32:23;98962.13;;;11.31;100.00
12879;BME280;20617;49.476;10.986;2023-02-18T04:34:28;98956.19;;;11.27;100.00
12879;BME280;20617;49.476;10.986;2023-02-18T04:36:33;98958.69;;;11.30;100.00
12879;BME280;20617;49.476;10.986;2023-02-18T04:38:38;98955.94;;;11.35;100.00
12879;BME280;20617;49.476;10.986;2023-02-18T04:40:43;98953.47;;;11.30;100.00
12879;BME280;20617;49.476;10.986;2023-02-18T04:42:48;98961.50;;;11.24;100.00
12879;BME280;20617;49.476;10.986;2023-02-18T04:44:57;98960.75;;;11.21;100.00
12879;BME280;20617;49.476;10.986;2023-02-18T04:47:02;98958.97;;;11.23;100.00
12879;BME280;20617;49.476;10.986;2023-02-18T04:49:07;98959.59;;;11.29;100.00
12879;BME280;20617;49.476;10.986;2023-02-18T04:51:12;98955.44;;;11.24;100.00
12879;BME280;20617;49.476;10.986;2023-02-18T04:53:17;98948.44;;;11.26;100.00
12879;BME280;20617;49.476;10.986;2023-02-18T04:55:22;98955.34;;;11.27;100.00
12879;BME280;20617;49.476;10.986;2023-02-18T04:57:27;98957.28;;;11.20;100.00
12879;BME280;20617;49.476;10.986;2023-02-18T04:59:31;98952.88;;;11.22;100.00
12879;BME280;20617;49.476;10.986;2023-02-18T05:01:39;98966.09;;;11.16;100.00
12879;BME280;20617;49.476;10.986;2023-02-18T05:03:44;98954.72;;;11.19;100.00
12879;BME280;20617;49.476;10.986;2023-02-18T05:05:49;98957.41;;;11.17;100.00
12879;BME280;20617;49.476;10.986;2023-02-18T05:07:55;98950.69;;;11.10;100.00
12879;BME280;20617;49.476;10.986;2023-02-18T05:10:00;98960.25;;;11.09;100.00
12879;BME280;20617;49.476;10.986;2023-02-18T05:12:06;98961.19;;;11.07;100.00
12879;BME280;20617;49.476;10.986;2023-02-18T05:14:11;98960.28;;;11.08;100.00
12879;BME280;20617;49.476;10.986;2023-02-18T05:16:15;98963.88;;;11.05;100.00
12879;BME280;20617;49.476;10.986;2023-02-18T05:18:23;98973.50;;;11.02;100.00
12879;BME280;20617;49.476;10.986;2023-02-18T05:20:28;98969.16;;;11.02;100.00
12879;BME280;20617;49.476;10.986;2023-02-18T05:22:33;98959.94;;;10.92;100.00
12879;BME280;20617;49.476;10.986;2023-02-18T05:24:38;98971.31;;;10.90;100.00
12879;BME280;20617;49.476;10.986;2023-02-18T05:26:43;98960.97;;;10.88;100.00
12879;BME280;20617;49.476;10.986;2023-02-18T05:28:47;98955.88;;;10.83;100.00
12879;BME280;20617;49.476;10.986;2023-02-18T05:30:52;98960.03;;;10.89;100.00
12879;BME280;20617;49.476;10.986;2023-02-18T05:32:57;98957.34;;;10.92;100.00
12879;BME280;20617;49.476;10.986;2023-02-18T05:35:06;98952.03;;;10.95;100.00
12879;BME280;20617;49.476;10.986;2023-02-18T05:37:11;98956.59;;;10.88;100.00
12879;BME280;20617;49.476;10.986;2023-02-18T05:39:16;98967.97;;;10.86;100.00
12879;BME280;20617;49.476;10.986;2023-02-18T05:41:21;98970.41;;;10.91;100.00
12879;BME280;20617;49.476;10.986;2023-02-18T05:43:25;98964.25;;;10.93;100.00
12879;BME280;20617;49.476;10.986;2023-02-18T05:45:30;98964.00;;;11.01;100.00
12879;BME280;20617;49.476;10.986;2023-02-18T05:47:33;98969.44;;;10.93;100.00
12879;BME280;20617;49.476;10.986;2023-02-18T05:49:39;98953.72;;;10.96;100.00
12879;BME280;20617;49.476;10.986;2023-02-18T05:51:47;98951.22;;;10.93;100.00
12879;BME280;20617;49.476;10.986;2023-02-18T05:53:52;98953.53;;;11.02;100.00
12879;BME280;20617;49.476;10.986;2023-02-18T05:55:56;98953.69;;;10.98;100.00
12879;BME280;20617;49.476;10.986;2023-02-18T05:58:01;98945.03;;;10.97;100.00
12879;BME280;20617;49.476;10.986;2023-02-18T06:00:07;98950.34;;;10.94;100.00
12879;BME280;20617;49.476;10.986;2023-02-18T06:02:12;98937.44;;;10.90;100.00
12879;BME280;20617;49.476;10.986;2023-02-18T06:04:17;98940.06;;;10.90;100.00
12879;BME280;20617;49.476;10.986;2023-02-18T06:06:22;98941.06;;;10.85;100.00
12879;BME280;20617;49.476;10.986;2023-02-18T06:08:30;98950.47;;;10.90;100.00
12879;BME280;20617;49.476;10.986;2023-02-18T06:10:35;98939.00;;;10.95;100.00
12879;BME280;20617;49.476;10.986;2023-02-18T06:12:40;98945.06;;;10.96;100.00
12879;BME280;20617;49.476;10.986;2023-02-18T06:14:45;98937.03;;;11.02;100.00
12879;BME280;20617;49.476;10.986;2023-02-18T06:16:50;98947.25;;;11.08;100.00
12879;BME280;20617;49.476;10.986;2023-02-18T06:18:57;98934.94;;;11.13;100.00
12879;BME280;20617;49.476;10.986;2023-02-18T06:21:02;98938.44;;;11.12;100.00
12879;BME280;20617;49.476;10.986;2023-02-18T06:23:07;98934.78;;;11.18;100.00
12879;BME280;20617;49.476;10.986;2023-02-18T06:25:15;98932.44;;;11.10;100.00
12879;BME280;20617;49.476;10.986;2023-02-18T06:27:20;98931.47;;;11.13;100.00
12879;BME280;20617;49.476;10.986;2023-02-18T06:29:25;98921.88;;;11.15;100.00
12879;BME280;20617;49.476;10.986;2023-02-18T06:31:31;98913.25;;;11.13;100.00
12879;BME280;20617;49.476;10.986;2023-02-18T06:33:36;98916.56;;;11.18;100.00
12879;BME280;20617;49.476;10.986;2023-02-18T06:35:41;98911.47;;;11.13;100.00
12879;BME280;20617;49.476;10.986;2023-02-18T06:37:46;98909.63;;;11.17;100.00
12879;BME280;20617;49.476;10.986;2023-02-18T06:39:51;98908.03;;;11.13;100.00
12879;BME280;20617;49.476;10.986;2023-02-18T06:41:58;98901.88;;;11.15;100.00
12879;BME280;20617;49.476;10.986;2023-02-18T06:44:03;98896.59;;;11.17;100.00
12879;BME280;20617;49.476;10.986;2023-02-18T06:46:08;98907.13;;;11.14;100.00
12879;BME280;20617;49.476;10.986;2023-02-18T06:48:13;98901.75;;;11.18;100.00
12879;BME280;20617;49.476;10.986;2023-02-18T06:50:18;98890.59;;;11.15;100.00
12879;BME280;20617;49.476;10.986;2023-02-18T06:52:23;98885.31;;;11.16;100.00
12879;BME280;20617;49.476;10.986;2023-02-18T06:54:28;98883.63;;;11.15;100.00
12879;BME280;20617;49.476;10.986;2023-02-18T06:56:33;98886.03;;;11.21;100.00
12879;BME280;20617;49.476;10.986;2023-02-18T06:58:41;98891.44;;;11.15;100.00
12879;BME280;20617;49.476;10.986;2023-02-18T07:00:46;98890.44;;;11.19;100.00
12879;BME280;20617;49.476;10.986;2023-02-18T07:02:51;98883.31;;;11.24;100.00
12879;BME280;20617;49.476;10.986;2023-02-18T07:04:56;98880.84;;;11.20;100.00
12879;BME280;20617;49.476;10.986;2023-02-18T07:07:00;98882.78;;;11.15;100.00
12879;BME280;20617;49.476;10.986;2023-02-18T07:09:05;98893.13;;;11.16;100.00
12879;BME280;20617;49.476;10.986;2023-02-18T07:11:10;98893.94;;;11.18;100.00
12879;BME280;20617;49.476;10.986;2023-02-18T07:13:15;98888.84;;;11.15;100.00
12879;BME280;20617;49.476;10.986;2023-02-18T07:15:23;98877.47;;;11.18;100.00
12879;BME280;20617;49.476;10.986;2023-02-18T07:17:29;98881.88;;;11.16;100.00
12879;BME280;20617;49.476;10.986;2023-02-18T07:19:34;98882.72;;;11.16;100.00
12879;BME280;20617;49.476;10.986;2023-02-18T07:21:38;98874.56;;;11.25;100.00
12879;BME280;20617;49.476;10.986;2023-02-18T07:23:43;98884.97;;;11.27;100.00
12879;BME280;20617;49.476;10.986;2023-02-18T07:25:48;98876.41;;;11.23;100.00
12879;BME280;20617;49.476;10.986;2023-02-18T07:27:56;98874.31;;;11.33;100.00
12879;BME280;20617;49.476;10.986;2023-02-18T07:30:01;98865.81;;;11.28;100.00
12879;BME280;20617;49.476;10.986;2023-02-18T07:32:08;98862.81;;;11.39;100.00
12879;BME280;20617;49.476;10.986;2023-02-18T07:34:15;98866.59;;;11.30;100.00
12879;BME280;20617;49.476;10.986;2023-02-18T07:36:20;98853.56;;;11.30;100.00
12879;BME280;20617;49.476;10.986;2023-02-18T07:38:26;98874.38;;;11.31;100.00
12879;BME280;20617;49.476;10.986;2023-02-18T07:40:32;98864.03;;;11.28;100.00
12879;BME280;20617;49.476;10.986;2023-02-18T07:42:36;98866.50;;;11.33;100.00
12879;BME280;20617;49.476;10.986;2023-02-18T07:44:42;98863.66;;;11.39;100.00
12879;BME280;20617;49.476;10.986;2023-02-18T07:46:47;98862.72;;;11.42;100.00
12879;BME280;20617;49.476;10.986;2023-02-18T07:48:55;98861.88;;;11.41;100.00
12879;BME280;20617;49.476;10.986;2023-02-18T07:51:00;98865.16;;;11.46;100.00
12879;BME280;20617;49.476;10.986;2023-02-18T07:53:05;98852.78;;;11.51;100.00
12879;BME280;20617;49.476;10.986;2023-02-18T07:55:10;98851.06;;;11.52;100.00
12879;BME280;20617;49.476;10.986;2023-02-18T07:57:15;98848.28;;;11.56;100.00
12879;BME280;20617;49.476;10.986;2023-02-18T07:59:20;98846.47;;;11.59;100.00
12879;BME280;20617;49.476;10.986;2023-02-18T08:01:25;98840.31;;;11.60;100.00
12879;BME280;20617;49.476;10.986;2023-02-18T08:03:31;98835.69;;;11.68;100.00
12879;BME280;20617;49.476;10.986;2023-02-18T08:05:39;98840.06;;;11.67;100.00
12879;BME280;20617;49.476;10.986;2023-02-18T08:07:44;98829.56;;;11.69;100.00
12879;BME280;20617;49.476;10.986;2023-02-18T08:09:49;98822.53;;;11.71;100.00
12879;BME280;20617;49.476;10.986;2023-02-18T08:11:54;98816.41;;;11.72;100.00
12879;BME280;20617;49.476;10.986;2023-02-18T08:13:59;98829.28;;;11.76;100.00
12879;BME280;20617;49.476;10.986;2023-02-18T08:16:05;98832.03;;;11.72;100.00
12879;BME280;20617;49.476;10.986;2023-02-18T08:18:14;98819.91;;;11.71;100.00
12879;BME280;20617;49.476;10.986;2023-02-18T08:20:20;98817.31;;;11.71;100.00
12879;BME280;20617;49.476;10.986;2023-02-18T08:22:27;98801.94;;;11.63;100.00
12879;BME280;20617;49.476;10.986;2023-02-18T08:24:32;98797.50;;;11.67;100.00
12879;BME280;20617;49.476;10.986;2023-02-18T08:26:37;98800.22;;;11.64;100.00
12879;BME280;20617;49.476;10.986;2023-02-18T08:29:00;98800.34;;;11.61;100.00
12879;BME280;20617;49.476;10.986;2023-02-18T08:31:05;98793.22;;;11.64;100.00
12879;BME280;20617;49.476;10.986;2023-02-18T08:33:11;98800.03;;;11.68;100.00
12879;BME280;20617;49.476;10.986;2023-02-18T08:35:16;98797.50;;;11.67;100.00
12879;BME280;20617;49.476;10.986;2023-02-18T08:37:27;98785.84;;;11.75;100.00
12879;BME280;20617;49.476;10.986;2023-02-18T08:39:52;98785.63;;;11.82;100.00
12879;BME280;20617;49.476;10.986;2023-02-18T08:41:56;98785.44;;;11.86;100.00
12879;BME280;20617;49.476;10.986;2023-02-18T08:44:02;98780.44;;;12.04;100.00
12879;BME280;20617;49.476;10.986;2023-02-18T08:46:07;98783.03;;;12.04;100.00
12879;BME280;20617;49.476;10.986;2023-02-18T08:48:17;98779.09;;;12.15;100.00
12879;BME280;20617;49.476;10.986;2023-02-18T08:50:21;98768.06;;;12.09;100.00
12879;BME280;20617;49.476;10.986;2023-02-18T08:52:30;98767.44;;;12.02;100.00
12879;BME280;20617;49.476;10.986;2023-02-18T08:54:34;98762.91;;;12.07;100.00
12879;BME280;20617;49.476;10.986;2023-02-18T08:56:40;98776.94;;;12.05;100.00
12879;BME280;20617;49.476;10.986;2023-02-18T08:58:45;98768.78;;;12.12;100.00
12879;BME280;20617;49.476;10.986;2023-02-18T09:00:50;98763.13;;;12.23;100.00
12879;BME280;20617;49.476;10.986;2023-02-18T09:02:58;98757.09;;;12.21;100.00
12879;BME280;20617;49.476;10.986;2023-02-18T09:05:03;98742.25;;;12.23;100.00
12879;BME280;20617;49.476;10.986;2023-02-18T09:07:08;98743.81;;;12.27;100.00
12879;BME280;20617;49.476;10.986;2023-02-18T09:09:15;98734.81;;;12.34;100.00
12879;BME280;20617;49.476;10.986;2023-02-18T09:11:20;98717.25;;;12.38;100.00
12879;BME280;20617;49.476;10.986;2023-02-18T09:13:26;98716.75;;;12.50;100.00
12879;BME280;20617;49.476;10.986;2023-02-18T09:15:31;98700.22;;;12.50;100.00
12879;BME280;20617;49.476;10.986;2023-02-18T09:17:36;98707.66;;;12.59;100.00
12879;BME280;20617;49.476;10.986;2023-02-18T09:19:41;98693.22;;;12.50;100.00
12879;BME280;20617;49.476;10.986;2023-02-18T09:21:46;98715.56;;;12.57;100.00
12879;BME280;20617;49.476;10.986;2023-02-18T09:23:52;98696.50;;;12.55;100.00
12879;BME280;20617;49.476;10.986;2023-02-18T09:26:03;98700.03;;;12.54;100.00
12879;BME280;20617;49.476;10.986;2023-02-18T09:28:08;98674.63;;;12.58;100.00
12879;BME280;20617;49.476;10.986;2023-02-18T09:30:14;98695.28;;;12.43;100.00
12879;BME280;20617;49.476;10.986;2023-02-18T09:32:18;98705.75;;;12.42;100.00
12879;BME280;20617;49.476;10.986;2023-02-18T09:34:35;98708.38;;;12.42;100.00
12879;BME280;20617;49.476;10.986;2023-02-18T09:36:40;98718.91;;;12.40;100.00
12879;BME280;20617;49.476;10.986;2023-02-18T09:38:45;98724.13;;;12.40;100.00
12879;BME280;20617;49.476;10.986;2023-02-18T09:40:52;98724.84;;;12.44;100.00
12879;BME280;20617;49.476;10.986;2023-02-18T09:43:01;98715.19;;;12.46;100.00
12879;BME280;20617;49.476;10.986;2023-02-18T09:45:10;98717.25;;;12.58;100.00
12879;BME280;20617;49.476;10.986;2023-02-18T09:47:20;98710.50;;;12.54;100.00
12879;BME280;20617;49.476;10.986;2023-02-18T09:49:31;98721.78;;;12.55;100.00
12879;BME280;20617;49.476;10.986;2023-02-18T09:51:37;98709.25;;;12.63;100.00
12879;BME280;20617;49.476;10.986;2023-02-18T09:53:43;98720.19;;;12.71;100.00
12879;BME280;20617;49.476;10.986;2023-02-18T09:55:50;98710.59;;;12.72;100.00
12879;BME280;20617;49.476;10.986;2023-02-18T09:58:03;98704.97;;;12.81;100.00
12879;BME280;20617;49.476;10.986;2023-02-18T10:00:12;98705.16;;;12.76;100.00
12879;BME280;20617;49.476;10.986;2023-02-18T10:02:18;98705.97;;;12.78;100.00
12879;BME280;20617;49.476;10.986;2023-02-18T10:04:26;98679.00;;;12.97;100.00
12879;BME280;20617;49.476;10.986;2023-02-18T10:06:33;98681.88;;;12.90;100.00
12879;BME280;20617;49.476;10.986;2023-02-18T10:08:42;98680.13;;;12.91;100.00
12879;BME280;20617;49.476;10.986;2023-02-18T10:10:48;98683.59;;;12.91;100.00
12879;BME280;20617;49.476;10.986;2023-02-18T10:12:53;98693.75;;;12.79;100.00
12879;BME280;20617;49.476;10.986;2023-02-18T10:15:01;98694.56;;;12.79;100.00
12879;BME280;20617;49.476;10.986;2023-02-18T10:17:06;98698.91;;;12.80;100.00
12879;BME280;20617;49.476;10.986;2023-02-18T10:19:20;98685.25;;;12.74;100.00
12879;BME280;20617;49.476;10.986;2023-02-18T10:21:27;98683.09;;;12.83;100.00
12879;BME280;20617;49.476;10.986;2023-02-18T10:23:37;98683.28;;;12.79;100.00
12879;BME280;20617;49.476;10.986;2023-02-18T10:25:44;98676.59;;;12.92;100.00
12879;BME280;20617;49.476;10.986;2023-02-18T10:27:51;98677.44;;;12.93;100.00
12879;BME280;20617;49.476;10.986;2023-02-18T10:30:08;98665.31;;;12.91;100.00
12879;BME280;20617;49.476;10.986;2023-02-18T10:32:23;98670.16;;;12.80;100.00
12879;BME280;20617;49.476;10.986;2023-02-18T10:34:38;98655.13;;;12.85;100.00
12879;BME280;20617;49.476;10.986;2023-02-18T10:36:46;98654.34;;;12.83;100.00
12879;BME280;20617;49.476;10.986;2023-02-18T10:39:22;98651.22;;;12.94;100.00
12879;BME280;20617;49.476;10.986;2023-02-18T10:41:38;98649.97;;;13.03;100.00
12879;BME280;20617;49.476;10.986;2023-02-18T10:43:52;98646.22;;;13.08;100.00
12879;BME280;20617;49.476;10.986;2023-02-18T10:46:06;98657.13;;;13.18;100.00
12879;BME280;20617;49.476;10.986;2023-02-18T10:48:27;98643.19;;;13.18;100.00
12879;BME280;20617;49.476;10.986;2023-02-18T10:50:38;98651.53;;;13.07;100.00
12879;BME280;20617;49.476;10.986;2023-02-18T10:52:46;98643.47;;;13.11;100.00
12879;BME280;20617;49.476;10.986;2023-02-18T10:54:58;98646.97;;;13.12;100.00
12879;BME280;20617;49.476;10.986;2023-02-18T10:57:09;98641.88;;;13.09;100.00
12879;BME280;20617;49.476;10.986;2023-02-18T10:59:21;98642.88;;;13.06;100.00
12879;BME280;20617;49.476;10.986;2023-02-18T11:01:28;98637.63;;;13.06;100.00
12879;BME280;20617;49.476;10.986;2023-02-18T11:03:40;98633.38;;;13.04;100.00
12879;BME280;20617;49.476;10.986;2023-02-18T11:05:47;98640.44;;;13.02;100.00